createdAt,value
2022-09-23T00:00:06.945Z,86.86
2022-09-23T00:02:37.143Z,86.83
2022-09-23T00:05:06.600Z,86.75
2022-09-23T00:07:35.285Z,86.87
2022-09-23T00:10:04.043Z,86.87
2022-09-23T00:12:32.776Z,86.63
2022-09-23T00:15:02.184Z,86.65
2022-09-23T00:17:33.383Z,86.62
2022-09-23T00:20:03.892Z,86.56
2022-09-23T00:22:32.737Z,86.70
2022-09-23T00:25:01.413Z,86.50
2022-09-23T00:27:33.253Z,86.47
2022-09-23T00:30:02.489Z,86.66
2022-09-23T00:32:34.449Z,86.61
2022-09-23T00:35:05.449Z,86.83
2022-09-23T00:37:34.273Z,86.88
2022-09-23T00:40:04.051Z,87.02
2022-09-23T00:42:32.959Z,86.95
2022-09-23T00:45:03.136Z,87.11
2022-09-23T00:47:36.908Z,87.03
2022-09-23T00:50:14.973Z,87.02
2022-09-23T00:52:44.666Z,86.87
2022-09-23T00:55:20.795Z,86.95
2022-09-23T00:57:49.685Z,86.89
2022-09-23T01:00:18.904Z,86.89
2022-09-23T01:02:48.104Z,86.83
2022-09-23T01:05:18.711Z,86.82
2022-09-23T01:07:48.448Z,86.77
2022-09-23T01:10:19.459Z,86.72
2022-09-23T01:13:16.059Z,86.94
2022-09-23T01:15:53.701Z,86.83
2022-09-23T01:18:38.360Z,86.79
2022-09-23T01:21:24.263Z,86.80
2022-09-23T01:24:48.234Z,86.92
2022-09-23T01:28:11.898Z,86.83
2022-09-23T01:30:49.732Z,86.89
2022-09-23T01:33:26.514Z,86.85
2022-09-23T01:36:20.417Z,86.75
2022-09-23T01:38:59.741Z,86.77
2022-09-23T01:41:56.512Z,86.83
2022-09-23T01:44:35.677Z,86.99
2022-09-23T01:47:12.403Z,87.28
2022-09-23T01:49:51.914Z,87.17
2022-09-23T01:52:28.247Z,87.51
2022-09-23T01:55:08.814Z,87.57
2022-09-23T01:57:44.662Z,87.51
2022-09-23T02:00:17.652Z,87.48
2022-09-23T02:02:54.044Z,87.35
2022-09-23T02:05:29.759Z,87.40
2022-09-23T02:08:04.581Z,86.81
2022-09-23T02:10:44.250Z,86.77
2022-09-23T02:13:20.715Z,86.75
2022-09-23T02:15:56.238Z,86.78
2022-09-23T02:18:31.207Z,86.79
2022-09-23T02:21:07.652Z,87.14
2022-09-23T02:23:45.173Z,86.76
2022-09-23T02:26:22.170Z,87.40
2022-09-23T02:29:01.606Z,87.40
2022-09-23T02:31:40.299Z,87.74
2022-09-23T02:34:23.315Z,88.13
2022-09-23T02:37:08.220Z,87.99
2022-09-23T02:39:55.666Z,87.97
2022-09-23T02:42:34.806Z,88.12
2022-09-23T02:45:03.669Z,88.25
2022-09-23T02:47:37.067Z,88.53
2022-09-23T02:50:09.422Z,88.54
2022-09-23T02:52:39.215Z,88.47
2022-09-23T02:55:13.101Z,88.61
2022-09-23T02:57:42.104Z,88.58
2022-09-23T03:00:13.236Z,88.52
2022-09-23T03:03:02.379Z,88.70
2022-09-23T03:05:41.558Z,88.95
2022-09-23T03:08:36.870Z,89.16
2022-09-23T03:11:10.616Z,89.20
2022-09-23T03:14:05.194Z,89.23
2022-09-23T03:16:43.930Z,89.30
2022-09-23T03:19:28.237Z,89.27
2022-09-23T03:22:07.156Z,89.28
2022-09-23T03:24:39.588Z,89.38
2022-09-23T03:27:16.257Z,89.27
2022-09-23T03:29:49.283Z,89.58
2022-09-23T03:32:24.281Z,89.50
2022-09-23T03:34:56.769Z,89.57
2022-09-23T03:37:33.318Z,89.74
2022-09-23T03:40:10.991Z,89.75
2022-09-23T03:42:42.111Z,89.92
2022-09-23T03:45:18.378Z,89.79
2022-09-23T03:47:47.921Z,89.90
2022-09-23T03:50:17.797Z,89.77
2022-09-23T03:52:49.705Z,89.72
2022-09-23T03:55:19.710Z,89.76
2022-09-23T03:57:49.009Z,89.78
2022-09-23T04:00:18.144Z,89.81
2022-09-23T04:02:47.060Z,89.84
2022-09-23T04:05:15.752Z,89.81
2022-09-23T04:07:44.405Z,89.67
2022-09-23T04:10:14.444Z,89.64
2022-09-23T04:12:43.132Z,89.58
2022-09-23T04:15:12.753Z,89.55
2022-09-23T04:17:41.960Z,89.69
2022-09-23T04:20:11.316Z,89.50
2022-09-23T04:22:40.265Z,89.72
2022-09-23T04:25:10.561Z,89.55
2022-09-23T04:27:40.853Z,89.66
2022-09-23T04:30:11.200Z,89.71
2022-09-23T04:32:40.276Z,89.78
2022-09-23T04:35:09.670Z,89.64
2022-09-23T04:37:38.323Z,89.73
2022-09-23T04:40:09.071Z,89.79
2022-09-23T04:42:37.919Z,89.72
2022-09-23T04:45:09.772Z,89.66
2022-09-23T04:47:59.481Z,89.66
2022-09-23T04:50:28.370Z,89.78
2022-09-23T04:52:57.322Z,89.71
2022-09-23T04:55:26.316Z,89.63
2022-09-23T04:57:57.225Z,89.66
2022-09-23T05:00:28.797Z,89.68
2022-09-23T05:02:57.957Z,89.71
2022-09-23T05:05:28.402Z,89.59
2022-09-23T05:07:58.072Z,89.72
2022-09-23T05:10:26.764Z,89.68
2022-09-23T05:13:00.409Z,89.61
2022-09-23T05:15:32.888Z,89.66
2022-09-23T05:18:02.741Z,89.55
2022-09-23T05:20:31.569Z,89.56
2022-09-23T05:23:01.210Z,89.42
2022-09-23T05:25:30.194Z,89.38
2022-09-23T05:27:58.974Z,89.27
2022-09-23T05:30:35.019Z,88.90
2022-09-23T05:33:13.650Z,88.55
2022-09-23T05:35:48.805Z,88.64
2022-09-23T05:38:17.825Z,88.21
2022-09-23T05:40:46.653Z,88.00
2022-09-23T05:43:15.797Z,87.77
2022-09-23T05:45:46.427Z,88.02
2022-09-23T05:48:15.181Z,87.75
2022-09-23T05:50:51.936Z,87.51
2022-09-23T05:53:21.447Z,87.14
2022-09-23T05:55:51.527Z,87.14
2022-09-23T05:58:20.407Z,87.04
2022-09-23T06:00:51.503Z,87.08
2022-09-23T06:03:26.995Z,86.79
2022-09-23T06:05:57.236Z,86.79
2022-09-23T06:08:26.191Z,86.60
2022-09-23T06:10:55.078Z,86.41
2022-09-23T06:13:24.000Z,86.72
2022-09-23T06:15:59.478Z,86.32
2022-09-23T06:18:28.361Z,85.66
2022-09-23T06:20:57.380Z,85.51
2022-09-23T06:23:26.778Z,85.50
2022-09-23T06:25:55.549Z,85.18
2022-09-23T06:28:27.262Z,85.00
2022-09-23T06:31:00.941Z,84.96
2022-09-23T06:33:36.683Z,84.60
2022-09-23T06:36:08.856Z,84.58
2022-09-23T06:38:41.467Z,84.31
2022-09-23T06:41:10.537Z,84.48
2022-09-23T06:43:39.608Z,84.49
2022-09-23T06:46:17.401Z,84.33
2022-09-23T06:48:48.853Z,84.05
2022-09-23T06:51:21.877Z,84.12
2022-09-23T06:53:51.038Z,83.87
2022-09-23T06:56:22.223Z,84.30
2022-09-23T06:58:53.596Z,84.50
2022-09-23T07:01:24.368Z,84.50
2022-09-23T07:03:54.409Z,84.14
2022-09-23T07:06:25.298Z,84.09
2022-09-23T07:08:55.548Z,84.20
2022-09-23T07:11:24.360Z,83.51
2022-09-23T07:13:53.214Z,83.04
2022-09-23T07:16:23.613Z,83.19
2022-09-23T07:18:53.563Z,83.09
2022-09-23T07:21:22.366Z,82.97
2022-09-23T07:23:57.833Z,82.20
2022-09-23T07:26:27.935Z,81.98
2022-09-23T07:29:04.602Z,80.82
2022-09-23T07:31:39.666Z,80.48
2022-09-23T07:34:11.840Z,80.48
2022-09-23T07:36:41.870Z,80.13
2022-09-23T07:39:13.398Z,79.79
2022-09-23T07:41:44.705Z,79.56
2022-09-23T07:44:13.787Z,79.52
2022-09-23T07:46:43.891Z,78.23
2022-09-23T07:49:13.693Z,77.33
2022-09-23T07:51:46.269Z,77.73
2022-09-23T07:54:18.436Z,77.97
2022-09-23T07:56:48.275Z,77.73
2022-09-23T07:59:19.565Z,77.13
2022-09-23T08:01:54.198Z,77.30
2022-09-23T08:04:27.850Z,77.82
2022-09-23T08:07:00.797Z,77.22
2022-09-23T08:09:33.061Z,77.29
2022-09-23T08:12:02.759Z,77.14
2022-09-23T08:14:31.531Z,77.22
2022-09-23T08:17:01.541Z,76.65
2022-09-23T08:19:30.332Z,76.53
2022-09-23T08:21:59.231Z,76.91
2022-09-23T08:24:30.305Z,76.95
2022-09-23T08:26:59.847Z,76.92
2022-09-23T08:29:28.477Z,76.27
2022-09-23T08:31:57.388Z,76.04
2022-09-23T08:34:29.650Z,75.83
2022-09-23T08:36:58.442Z,75.45
2022-09-23T08:39:27.197Z,75.58
2022-09-23T08:42:10.536Z,73.77
2022-09-23T08:44:50.572Z,74.21
2022-09-23T08:47:26.176Z,74.63
2022-09-23T08:50:06.972Z,74.90
2022-09-23T08:52:49.578Z,74.69
2022-09-23T08:55:20.171Z,75.06
2022-09-23T08:58:26.528Z,75.51
2022-09-23T09:01:10.611Z,75.32
2022-09-23T09:03:47.530Z,75.23
2022-09-23T09:06:23.991Z,74.96
2022-09-23T09:09:00.998Z,74.81
2022-09-23T09:11:38.169Z,74.53
2022-09-23T09:14:23.673Z,74.74
2022-09-23T09:17:02.953Z,74.45
2022-09-23T09:20:09.001Z,74.12
2022-09-23T09:22:57.862Z,74.00
2022-09-23T09:25:44.379Z,74.05
2022-09-23T09:28:21.329Z,73.87
2022-09-23T09:30:57.393Z,73.58
2022-09-23T09:33:33.222Z,73.42
2022-09-23T09:36:16.049Z,73.12
2022-09-23T09:38:46.414Z,73.20
2022-09-23T09:41:21.488Z,72.63
2022-09-23T09:43:57.718Z,73.71
2022-09-23T09:46:54.694Z,73.46
2022-09-23T09:49:40.117Z,71.79
2022-09-23T09:52:23.757Z,70.62
2022-09-23T09:55:00.545Z,71.69
2022-09-23T09:57:36.071Z,70.95
2022-09-23T10:00:44.427Z,71.12
2022-09-23T10:03:31.496Z,70.88
2022-09-23T10:06:00.245Z,70.26
2022-09-23T10:08:33.650Z,70.38
2022-09-23T10:11:07.097Z,70.55
2022-09-23T10:13:38.232Z,70.41
2022-09-23T10:16:07.459Z,69.33
2022-09-23T10:18:40.271Z,68.65
2022-09-23T10:21:12.286Z,67.07
2022-09-23T10:23:45.709Z,66.50
2022-09-23T10:26:18.600Z,64.63
2022-09-23T10:28:52.314Z,65.07
2022-09-23T10:31:26.878Z,65.08
2022-09-23T10:33:59.866Z,66.15
2022-09-23T10:36:30.264Z,67.11
2022-09-23T10:39:15.252Z,67.85
2022-09-23T10:42:31.168Z,66.79
2022-09-23T10:45:37.549Z,67.16
2022-09-23T10:48:27.232Z,66.90
2022-09-23T10:50:59.832Z,66.03
2022-09-23T10:53:47.587Z,66.41
2022-09-23T10:56:31.469Z,67.13
2022-09-23T10:59:29.259Z,66.26
2022-09-23T11:02:15.087Z,66.22
2022-09-23T11:05:17.224Z,65.26
2022-09-23T11:07:59.660Z,64.80
2022-09-23T11:11:03.128Z,64.02
2022-09-23T11:14:04.317Z,65.06
2022-09-23T11:16:52.794Z,64.87
2022-09-23T11:20:32.571Z,64.90
2022-09-23T11:23:39.066Z,66.99
2022-09-23T11:26:32.921Z,67.78
2022-09-23T11:29:42.538Z,69.36
2022-09-23T11:32:39.703Z,70.22
2022-09-23T11:35:20.595Z,70.42
2022-09-23T11:37:55.034Z,69.99
2022-09-23T11:40:32.261Z,70.83
2022-09-23T11:43:07.261Z,71.02
2022-09-23T11:45:45.153Z,71.32
2022-09-23T11:48:23.084Z,71.45
2022-09-23T11:50:59.650Z,71.86
2022-09-23T11:53:43.655Z,71.85
2022-09-23T11:56:33.973Z,71.72
2022-09-23T11:59:14.160Z,72.36
2022-09-23T12:01:49.729Z,72.30
2022-09-23T12:04:55.295Z,72.28
2022-09-23T12:07:35.869Z,72.04
2022-09-23T12:10:07.997Z,71.60
2022-09-23T12:12:47.816Z,71.82
2022-09-23T12:15:32.939Z,72.16
2022-09-23T12:18:23.431Z,71.64
2022-09-23T12:21:49.797Z,72.32
2022-09-23T12:24:52.477Z,72.92
2022-09-23T12:27:37.452Z,73.24
2022-09-23T12:30:16.981Z,73.41
2022-09-23T12:32:46.533Z,73.64
2022-09-23T12:35:33.309Z,73.79
2022-09-23T12:38:04.957Z,73.56
2022-09-23T12:40:40.924Z,73.70
2022-09-23T12:43:19.161Z,73.41
2022-09-23T12:45:48.629Z,73.02
2022-09-23T12:49:01.292Z,71.86
2022-09-23T12:51:34.200Z,72.28
2022-09-23T12:54:26.096Z,72.30
2022-09-23T12:57:06.638Z,72.43
2022-09-23T13:00:14.716Z,72.77
2022-09-23T13:03:09.148Z,72.71
2022-09-23T13:06:04.767Z,73.12
2022-09-23T13:08:38.681Z,73.34
2022-09-23T13:11:20.589Z,72.85
2022-09-23T13:13:51.793Z,72.67
2022-09-23T13:16:27.537Z,72.32
2022-09-23T13:18:58.301Z,72.56
2022-09-23T13:22:09.255Z,72.48
2022-09-23T13:24:45.290Z,71.82
2022-09-23T13:27:32.601Z,72.00
2022-09-23T13:30:07.777Z,71.76
2022-09-23T13:32:49.798Z,71.49
2022-09-23T13:35:27.657Z,71.03
2022-09-23T13:37:56.447Z,70.80
2022-09-23T13:40:28.221Z,70.48
2022-09-23T13:43:02.469Z,70.78
2022-09-23T13:45:33.911Z,70.99
2022-09-23T13:48:08.103Z,70.62
2022-09-23T13:50:41.718Z,70.52
2022-09-23T13:53:14.404Z,70.85
2022-09-23T13:55:43.126Z,71.12
2022-09-23T13:58:22.215Z,71.12
2022-09-23T14:00:52.072Z,71.53
2022-09-23T14:03:31.274Z,71.92
2022-09-23T14:06:10.365Z,72.28
2022-09-23T14:08:43.597Z,72.04
2022-09-23T14:11:17.672Z,71.56
2022-09-23T14:13:55.058Z,71.81
2022-09-23T14:16:28.344Z,71.84
2022-09-23T14:19:02.000Z,72.23
2022-09-23T14:21:38.637Z,72.88
2022-09-23T14:24:20.465Z,73.27
2022-09-23T14:26:55.902Z,72.99
2022-09-23T14:29:31.685Z,73.11
2022-09-23T14:32:04.549Z,72.34
2022-09-23T14:34:49.662Z,71.95
2022-09-23T14:37:47.966Z,71.96
2022-09-23T14:40:20.719Z,71.91
2022-09-23T14:42:53.735Z,72.02
2022-09-23T14:45:28.948Z,72.17
2022-09-23T14:48:01.392Z,71.85
2022-09-23T14:50:40.765Z,72.01
2022-09-23T14:53:40.337Z,72.25
2022-09-23T14:56:48.083Z,72.45
2022-09-23T14:59:30.676Z,72.58
2022-09-23T15:02:01.785Z,72.73
2022-09-23T15:04:56.851Z,72.71
2022-09-23T15:07:27.163Z,73.14
2022-09-23T15:09:56.738Z,73.29
2022-09-23T15:12:29.118Z,73.43
2022-09-23T15:15:37.641Z,73.76
2022-09-23T15:18:27.538Z,73.65
2022-09-23T15:21:02.022Z,73.78
2022-09-23T15:23:40.468Z,74.18
2022-09-23T15:26:15.354Z,74.74
2022-09-23T15:28:45.246Z,75.39
2022-09-23T15:31:15.984Z,75.56
2022-09-23T15:33:48.319Z,75.82
2022-09-23T15:36:21.947Z,76.20
2022-09-23T15:38:51.657Z,76.42
2022-09-23T15:41:21.455Z,76.68
2022-09-23T15:43:54.011Z,76.95
2022-09-23T15:46:26.667Z,77.64
2022-09-23T15:49:01.699Z,77.78
2022-09-23T15:51:31.064Z,78.11
2022-09-23T15:54:23.226Z,78.14
2022-09-23T15:57:00.511Z,78.43
2022-09-23T15:59:32.125Z,78.91
2022-09-23T16:02:08.122Z,79.04
2022-09-23T16:04:49.173Z,79.40
2022-09-23T16:07:20.029Z,79.82
2022-09-23T16:09:48.913Z,79.98
2022-09-23T16:12:17.888Z,80.24
2022-09-23T16:14:46.624Z,80.47
2022-09-23T16:17:15.446Z,80.55
2022-09-23T16:20:23.553Z,81.00
2022-09-23T16:22:57.939Z,81.16
2022-09-23T16:25:30.396Z,81.48
2022-09-23T16:31:02.256Z,81.70
2022-09-23T16:33:31.003Z,82.28
2022-09-23T16:36:08.349Z,82.41
2022-09-23T16:38:37.539Z,82.60
2022-09-23T16:41:06.962Z,82.79
2022-09-23T16:43:40.631Z,82.89
2022-09-23T16:46:12.290Z,83.09
2022-09-23T16:48:53.589Z,83.23
2022-09-23T16:51:28.014Z,83.47
2022-09-23T16:54:36.772Z,83.55
2022-09-23T16:57:13.256Z,83.54
2022-09-23T17:00:00.045Z,83.74
2022-09-23T17:02:47.627Z,83.69
2022-09-23T17:05:19.576Z,83.85
2022-09-23T17:07:50.699Z,83.98
2022-09-23T17:10:21.425Z,83.97
2022-09-23T17:13:09.756Z,84.09
2022-09-23T17:15:40.384Z,84.30
2022-09-23T17:18:10.393Z,84.36
2022-09-23T17:20:43.004Z,84.44
2022-09-23T17:23:38.502Z,84.45
2022-09-23T17:26:09.969Z,84.71
2022-09-23T17:28:42.080Z,84.72
2022-09-23T17:31:11.444Z,84.86
2022-09-23T17:33:42.955Z,85.03
2022-09-23T17:36:18.494Z,85.06
2022-09-23T17:38:53.682Z,85.06
2022-09-23T17:41:23.669Z,85.08
2022-09-23T17:44:00.765Z,85.24
2022-09-23T17:46:35.345Z,85.15
2022-09-23T17:49:05.781Z,85.29
2022-09-23T17:51:35.048Z,85.17
2022-09-23T17:54:11.029Z,85.47
2022-09-23T17:56:44.587Z,85.42
2022-09-23T17:59:14.277Z,85.73
2022-09-23T18:01:44.142Z,85.81
2022-09-23T18:04:13.985Z,85.71
2022-09-23T18:06:48.375Z,85.82
2022-09-23T18:09:19.391Z,85.87
2022-09-23T18:11:49.885Z,85.89
2022-09-23T18:14:25.014Z,86.11
2022-09-23T18:16:59.877Z,86.09
2022-09-23T18:19:33.464Z,86.15
2022-09-23T18:22:03.086Z,85.99
2022-09-23T18:24:38.096Z,85.97
2022-09-23T18:27:10.833Z,86.04
2022-09-23T18:29:46.937Z,86.08
2022-09-23T18:32:17.924Z,86.00
2022-09-23T18:34:50.591Z,86.02
2022-09-23T18:37:24.315Z,85.97
2022-09-23T18:39:55.739Z,86.18
2022-09-23T18:42:29.865Z,86.14
2022-09-23T18:45:02.326Z,86.67
2022-09-23T18:47:50.754Z,86.40
2022-09-23T18:50:39.377Z,86.57
2022-09-23T18:53:10.800Z,86.73
2022-09-23T18:55:42.543Z,86.85
2022-09-23T18:58:14.871Z,86.83
2022-09-23T19:00:48.140Z,86.86
2022-09-23T19:03:19.560Z,86.78
2022-09-23T19:05:48.855Z,86.82
2022-09-23T19:08:19.036Z,86.87
2022-09-23T19:10:57.272Z,86.65
2022-09-23T19:13:27.806Z,86.75
2022-09-23T19:16:04.154Z,86.95
2022-09-23T19:18:42.205Z,86.92
2022-09-23T19:21:14.687Z,86.95
2022-09-23T19:23:54.416Z,87.18
2022-09-23T19:26:28.284Z,86.99
2022-09-23T19:29:02.681Z,87.12
2022-09-23T19:31:34.941Z,87.11
2022-09-23T19:34:10.919Z,87.00
2022-09-23T19:36:42.755Z,87.22
2022-09-23T19:39:18.090Z,87.42
2022-09-23T19:41:49.528Z,87.36
2022-09-23T19:44:20.663Z,87.60
2022-09-23T19:46:56.003Z,87.53
2022-09-23T19:49:31.302Z,87.34
2022-09-23T19:52:01.763Z,87.11
2022-09-23T19:54:30.807Z,86.94
2022-09-23T19:57:19.630Z,87.41
2022-09-23T19:59:57.275Z,87.13
2022-09-23T20:02:26.692Z,87.17
2022-09-23T20:04:55.456Z,87.23
2022-09-23T20:07:24.586Z,87.40
2022-09-23T20:09:53.600Z,87.24
2022-09-23T20:12:27.644Z,87.28
2022-09-23T20:14:56.471Z,87.48
2022-09-23T20:17:40.293Z,87.63
2022-09-23T20:20:48.329Z,87.83
2022-09-23T20:23:20.771Z,87.91
2022-09-23T20:26:14.886Z,87.70
2022-09-23T20:28:45.295Z,87.95
2022-09-23T20:31:15.644Z,88.04
2022-09-23T20:33:46.270Z,88.08
2022-09-23T20:36:15.421Z,88.19
2022-09-23T20:38:44.140Z,88.33
2022-09-23T20:41:13.744Z,88.31
2022-09-23T20:43:42.712Z,88.14
2022-09-23T20:46:15.040Z,88.30
2022-09-23T20:48:46.389Z,88.38
2022-09-23T20:51:15.654Z,88.24
2022-09-23T20:53:45.806Z,88.45
2022-09-23T20:56:15.007Z,88.18
2022-09-23T20:58:44.605Z,88.17
2022-09-23T21:01:15.042Z,88.20
2022-09-23T21:03:46.551Z,88.26
2022-09-23T21:06:17.644Z,88.47
2022-09-23T21:08:47.012Z,88.42
2022-09-23T21:11:18.049Z,88.29
2022-09-23T21:13:48.387Z,88.21
2022-09-23T21:16:22.144Z,88.41
2022-09-23T21:18:52.086Z,88.77
2022-09-23T21:21:22.476Z,88.44
2022-09-23T21:23:53.553Z,88.40
2022-09-23T21:26:24.771Z,88.38
2022-09-23T21:28:57.905Z,88.38
2022-09-23T21:31:32.251Z,88.68
2022-09-23T21:34:03.484Z,88.63
2022-09-23T21:36:34.976Z,88.37
2022-09-23T21:39:05.705Z,88.49
2022-09-23T21:41:35.209Z,88.66
2022-09-23T21:44:06.655Z,88.64
2022-09-23T21:46:38.237Z,88.38
2022-09-23T21:49:06.998Z,88.72
2022-09-23T21:51:40.513Z,88.62
2022-09-23T21:54:14.617Z,88.86
2022-09-23T21:56:44.526Z,88.85
2022-09-23T21:59:13.569Z,88.40
2022-09-23T22:01:45.846Z,88.52
2022-09-23T22:04:18.731Z,88.45
2022-09-23T22:06:49.177Z,88.68
2022-09-23T22:09:20.834Z,89.02
2022-09-23T22:12:11.276Z,89.01
2022-09-23T22:14:40.491Z,88.96
2022-09-23T22:17:12.376Z,89.41
2022-09-23T22:19:45.838Z,89.28
2022-09-23T22:22:19.655Z,89.34
2022-09-23T22:24:50.133Z,89.36
2022-09-23T22:27:21.277Z,89.58
2022-09-23T22:30:07.112Z,89.56
2022-09-23T22:32:43.760Z,89.54
2022-09-23T22:35:16.652Z,89.53
2022-09-23T22:37:46.235Z,89.58
2022-09-23T22:40:16.953Z,89.63
2022-09-23T22:42:46.705Z,89.71
2022-09-23T22:45:15.585Z,89.74
2022-09-23T22:47:46.127Z,89.72
2022-09-23T22:50:15.504Z,89.71
2022-09-23T22:52:44.518Z,89.59
2022-09-23T22:55:14.098Z,89.39
2022-09-23T22:57:42.784Z,89.32
2022-09-23T23:00:13.596Z,89.32
2022-09-23T23:02:44.092Z,89.17
2022-09-23T23:05:14.613Z,89.00
2022-09-23T23:07:43.272Z,89.03
2022-09-23T23:10:11.997Z,89.01
2022-09-23T23:12:41.872Z,89.07
2022-09-23T23:15:12.481Z,89.19
2022-09-23T23:17:43.737Z,88.67
2022-09-23T23:20:13.835Z,88.65
2022-09-23T23:22:42.804Z,88.71
2022-09-23T23:25:11.759Z,89.09
2022-09-23T23:27:40.430Z,88.57
2022-09-23T23:30:10.870Z,88.47
2022-09-23T23:32:39.577Z,88.35
2022-09-23T23:35:09.354Z,88.23
2022-09-23T23:37:39.510Z,87.95
2022-09-23T23:40:09.889Z,87.86
2022-09-23T23:42:40.748Z,87.78
2022-09-23T23:45:10.739Z,87.80
2022-09-23T23:47:40.117Z,87.67
2022-09-23T23:50:09.882Z,87.81
2022-09-23T23:52:40.262Z,87.86
2022-09-23T23:55:09.884Z,87.92
2022-09-23T23:57:39.722Z,87.72
